Disclaimer

Please do not use the information listed here in-flight or in-navigation, as they are not provided to us by the airports but are provided by volunteers, so they might be outdated.

Search


Regions


Airport information page

Radio informations:
Tower (TWR) - 122.7 MHz
Approach (APP) - 124.0 MHz
RDO - 5637 MHz

Airport informations:
Latitude: 38° 20' 35.43" N
Longitude: 026° 08' 26.06" E
Elevation: 15 feet - 5 meters
Operating hours: Remarks
Operating agency: Civil government, landing fees and diplomatic clearance may be required
Timezone: UTC+2(+3DT) - Last Sunday in March to last Sunday in October
Fuel: Jet A1, without icing nhibitor.

Runway information:
01/19 - 4957 x 98 feet< - >1511 x 30 meters

Recent METARs:
LGHI 181850Z 17012KT 9999 FEW008 FEW018TCU BKN025 19/16 Q1011
LGHI 181950Z 17015KT 9999 FEW008 FEW018TCU BKN025 19/16 Q1011
LGHI 181950Z 17015KT 9999 FEW008 FEW018TCU BKN025 19/16 Q1011

Airport on the map: